createdAt,value
2018-06-12T00:02:23.505Z,13.13
2018-06-12T00:04:52.678Z,12.07
2018-06-12T00:07:20.846Z,13.47
2018-06-12T00:09:48.957Z,13.77
2018-06-12T00:12:18.037Z,12.73
2018-06-12T00:14:46.168Z,13.47
2018-06-12T00:17:14.372Z,14.17
2018-06-12T00:19:42.505Z,14.23
2018-06-12T00:22:10.657Z,14.50
2018-06-12T00:24:38.791Z,13.60
2018-06-12T00:27:06.995Z,14.63
2018-06-12T00:29:35.184Z,15.00
2018-06-12T00:32:03.370Z,13.40
2018-06-12T00:34:31.514Z,14.03
2018-06-12T00:36:59.728Z,13.30
2018-06-12T00:39:28.851Z,13.67
2018-06-12T00:41:57.017Z,13.43
2018-06-12T00:44:25.143Z,13.87
2018-06-12T00:46:53.341Z,14.00
2018-06-12T00:49:21.237Z,12.67
2018-06-12T00:51:49.375Z,14.23
2018-06-12T00:54:18.324Z,14.10
2018-06-12T00:56:57.486Z,14.07
2018-06-12T00:59:25.641Z,13.40
2018-06-12T01:01:53.799Z,14.13
2018-06-12T01:04:21.946Z,13.13
2018-06-12T01:06:50.132Z,12.50
2018-06-12T01:09:18.288Z,11.83
2018-06-12T01:11:46.437Z,8.87
2018-06-12T01:14:14.617Z,8.80
2018-06-12T01:16:42.784Z,9.47
2018-06-12T01:19:10.990Z,8.93
2018-06-12T01:21:40.156Z,10.30
2018-06-12T01:24:08.304Z,10.03
2018-06-12T01:26:36.516Z,9.17
2018-06-12T01:29:04.761Z,7.40
2018-06-12T01:31:32.907Z,4.60
2018-06-12T01:34:01.558Z,4.13
2018-06-12T01:36:29.480Z,4.20
2018-06-12T01:38:57.629Z,4.70
2018-06-12T01:41:25.853Z,4.70
2018-06-12T01:43:54.094Z,4.37
2018-06-12T01:46:22.278Z,3.70
2018-06-12T01:48:50.458Z,3.73
2018-06-12T01:51:18.617Z,4.53
2018-06-12T01:53:47.203Z,4.00
2018-06-12T01:56:15.406Z,4.27
2018-06-12T01:58:43.524Z,4.53
2018-06-12T02:01:11.725Z,4.23
2018-06-12T02:03:39.880Z,4.50
2018-06-12T02:06:08.088Z,4.27
2018-06-12T02:08:36.238Z,4.33
2018-06-12T02:11:04.445Z,4.00
2018-06-12T02:13:32.687Z,4.83
2018-06-12T02:16:00.878Z,4.10
2018-06-12T02:18:29.013Z,5.13
2018-06-12T02:20:57.170Z,4.20
2018-06-12T02:23:25.359Z,4.30
2018-06-12T02:25:53.497Z,4.53
2018-06-12T02:28:21.658Z,4.40
2018-06-12T02:30:49.806Z,5.30
2018-06-12T02:33:17.995Z,4.77
2018-06-12T02:35:46.258Z,5.10
2018-06-12T02:38:14.418Z,4.87
2018-06-12T02:40:42.645Z,4.97
2018-06-12T02:43:10.744Z,5.80
2018-06-12T02:45:38.942Z,5.20
2018-06-12T02:48:07.101Z,5.70
2018-06-12T02:50:35.325Z,6.00
2018-06-12T02:53:03.519Z,6.27
2018-06-12T02:55:31.690Z,5.20
2018-06-12T02:57:59.937Z,6.10
2018-06-12T03:00:28.129Z,6.23
2018-06-12T03:02:56.283Z,6.70
2018-06-12T03:05:24.413Z,6.17
2018-06-12T03:07:52.623Z,6.00
2018-06-12T03:10:20.817Z,6.30
2018-06-12T03:12:48.940Z,6.53
2018-06-12T03:15:17.100Z,7.00
2018-06-12T03:17:45.250Z,6.23
2018-06-12T03:20:13.421Z,8.30
2018-06-12T03:22:41.527Z,9.00
2018-06-12T03:25:09.669Z,9.17
2018-06-12T03:27:37.837Z,8.63
2018-06-12T03:30:05.983Z,9.90
2018-06-12T03:32:34.119Z,7.67
2018-06-12T03:35:02.241Z,9.53
2018-06-12T03:37:30.395Z,9.70
2018-06-12T03:39:58.549Z,9.80
2018-06-12T03:42:26.654Z,10.33
2018-06-12T03:44:54.817Z,8.33
2018-06-12T03:47:22.951Z,8.83
2018-06-12T03:49:51.097Z,9.30
2018-06-12T03:52:26.777Z,7.80
2018-06-12T03:54:54.996Z,8.43
2018-06-12T03:57:23.169Z,7.70
2018-06-12T03:59:51.309Z,7.80
2018-06-12T04:02:20.049Z,8.20
2018-06-12T04:04:48.199Z,7.43
2018-06-12T04:07:16.388Z,7.27
2018-06-12T04:09:44.531Z,6.57
2018-06-12T04:12:12.428Z,6.87
2018-06-12T04:14:42.107Z,7.07
2018-06-12T04:17:10.352Z,7.33
2018-06-12T04:19:38.488Z,7.03
2018-06-12T04:22:06.686Z,7.07
2018-06-12T04:24:35.710Z,6.93
2018-06-12T04:27:03.982Z,7.70
2018-06-12T04:29:32.207Z,8.03
2018-06-12T04:32:02.447Z,9.20
2018-06-12T04:34:30.651Z,10.20
2018-06-12T04:36:58.810Z,10.80
2018-06-12T04:39:26.998Z,10.33
2018-06-12T04:41:55.134Z,10.73
2018-06-12T04:44:23.326Z,10.20
2018-06-12T04:46:51.460Z,10.47
2018-06-12T04:49:19.708Z,10.37
2018-06-12T04:51:47.903Z,9.63
2018-06-12T04:54:16.024Z,9.57
2018-06-12T04:56:44.175Z,10.10
2018-06-12T04:59:12.313Z,10.63
2018-06-12T05:01:40.472Z,10.00
2018-06-12T05:04:08.745Z,10.10
2018-06-12T05:06:36.965Z,8.80
2018-06-12T05:09:06.923Z,9.40
2018-06-12T05:11:35.098Z,8.90
2018-06-12T05:14:03.317Z,9.90
2018-06-12T05:16:31.691Z,9.17
2018-06-12T05:19:00.425Z,9.10
2018-06-12T05:21:28.806Z,8.27
2018-06-12T05:23:57.198Z,7.50
2018-06-12T05:26:25.521Z,7.77
2018-06-12T05:28:53.826Z,7.57
2018-06-12T05:31:22.230Z,8.13
2018-06-12T05:33:50.534Z,8.17
2018-06-12T05:36:18.835Z,7.53
2018-06-12T05:38:46.847Z,6.83
2018-06-12T05:41:15.226Z,6.10
2018-06-12T05:43:43.631Z,7.53
2018-06-12T05:46:13.013Z,7.13
2018-06-12T05:48:41.384Z,6.77
2018-06-12T05:51:09.748Z,7.37
2018-06-12T05:53:38.168Z,6.47
2018-06-12T05:56:06.571Z,6.57
2018-06-12T05:58:34.931Z,6.70
2018-06-12T06:01:04.519Z,6.60
2018-06-12T06:03:32.805Z,9.33
2018-06-12T06:06:01.164Z,9.77
2018-06-12T06:08:29.537Z,10.67
2018-06-12T06:10:57.903Z,10.40
2018-06-12T06:13:26.273Z,11.20
2018-06-12T06:15:55.021Z,11.57
2018-06-12T06:18:23.376Z,11.27
2018-06-12T06:20:51.683Z,12.33
2018-06-12T06:23:20.014Z,10.53
2018-06-12T06:25:49.122Z,11.00
2018-06-12T06:28:18.300Z,11.10
2018-06-12T06:30:46.575Z,10.13
2018-06-12T06:33:15.026Z,10.20
2018-06-12T06:35:43.385Z,10.77
2018-06-12T06:38:11.699Z,10.20
2018-06-12T06:40:39.921Z,10.73
2018-06-12T06:43:08.231Z,9.80
2018-06-12T06:45:36.799Z,9.33
2018-06-12T06:48:05.113Z,9.70
2018-06-12T06:50:33.447Z,9.17
2018-06-12T06:53:01.709Z,8.37
2018-06-12T06:55:29.969Z,9.77
2018-06-12T06:57:58.466Z,8.37
2018-06-12T07:00:26.715Z,9.13
2018-06-12T07:02:54.951Z,8.87
2018-06-12T07:05:23.232Z,8.43
2018-06-12T07:07:51.578Z,8.43
2018-06-12T07:10:19.946Z,7.57
2018-06-12T07:12:48.235Z,7.47
2018-06-12T07:15:16.501Z,7.60
2018-06-12T07:17:44.833Z,6.77
2018-06-12T07:20:20.115Z,6.40
2018-06-12T07:22:48.405Z,6.10
2018-06-12T07:25:16.706Z,5.50
2018-06-12T07:27:44.899Z,5.30
2018-06-12T07:30:13.166Z,4.47
2018-06-12T07:32:42.664Z,5.33
2018-06-12T07:35:11.042Z,5.23
2018-06-12T07:37:39.540Z,3.93
2018-06-12T07:40:07.741Z,4.80
2018-06-12T07:42:35.971Z,5.00
2018-06-12T07:45:04.379Z,4.50
2018-06-12T07:47:32.734Z,4.20
2018-06-12T07:50:01.133Z,4.73
2018-06-12T07:52:29.368Z,5.07
2018-06-12T07:54:57.648Z,4.67
2018-06-12T07:57:25.962Z,4.50
2018-06-12T07:59:54.286Z,4.80
2018-06-12T08:02:22.574Z,4.63
2018-06-12T08:04:50.811Z,4.47
2018-06-12T08:07:18.813Z,5.03
2018-06-12T08:09:47.134Z,5.07
2018-06-12T08:12:15.382Z,5.00
2018-06-12T08:14:43.700Z,4.73
2018-06-12T08:17:11.752Z,5.80
2018-06-12T08:19:41.160Z,4.43
2018-06-12T08:22:10.258Z,4.10
2018-06-12T08:24:39.969Z,5.07
2018-06-12T08:27:08.341Z,4.87
2018-06-12T08:29:36.812Z,5.20
2018-06-12T08:32:05.235Z,5.80
2018-06-12T08:34:34.774Z,5.40
2018-06-12T08:37:03.919Z,5.23
2018-06-12T08:39:32.831Z,4.87
2018-06-12T08:42:01.373Z,4.83
2018-06-12T08:44:30.267Z,5.57
2018-06-12T08:46:58.672Z,4.87
2018-06-12T08:49:26.794Z,5.10
2018-06-12T08:51:55.211Z,4.83
2018-06-12T08:54:23.579Z,4.77
2018-06-12T08:56:51.961Z,4.10
2018-06-12T08:59:21.112Z,4.97
2018-06-12T09:01:49.377Z,4.70
2018-06-12T09:04:18.354Z,5.28
2018-06-12T09:06:47.639Z,5.23
2018-06-12T09:09:15.966Z,5.10
2018-06-12T09:11:44.407Z,4.90
2018-06-12T09:14:12.772Z,4.73
2018-06-12T09:16:41.061Z,4.60
2018-06-12T09:19:09.554Z,5.25
2018-06-12T09:21:37.988Z,5.30
2018-06-12T09:24:06.317Z,5.37
2018-06-12T09:26:35.710Z,5.17
2018-06-12T09:29:04.254Z,5.83
2018-06-12T09:31:32.770Z,5.40
2018-06-12T09:34:01.294Z,6.17
2018-06-12T09:36:34.118Z,5.50
2018-06-12T09:39:05.865Z,5.03
2018-06-12T09:41:34.244Z,4.97
2018-06-12T09:44:02.715Z,5.33
2018-06-12T09:46:31.096Z,5.40
2018-06-12T09:48:59.619Z,5.37
2018-06-12T09:51:28.105Z,5.60
2018-06-12T09:53:56.560Z,5.80
2018-06-12T09:56:26.692Z,5.13
2018-06-12T09:58:55.162Z,6.13
2018-06-12T10:01:23.783Z,6.00
2018-06-12T10:03:53.043Z,6.33
2018-06-12T10:06:21.600Z,5.90
2018-06-12T10:08:50.140Z,5.90
2018-06-12T10:11:18.706Z,5.43
2018-06-12T10:13:47.113Z,6.40
2018-06-12T10:16:15.470Z,6.50
2018-06-12T10:18:43.928Z,5.60
2018-06-12T10:21:12.407Z,6.63
2018-06-12T10:23:41.051Z,6.73
2018-06-12T10:26:10.442Z,5.97
2018-06-12T10:28:38.607Z,5.70
2018-06-12T10:31:07.780Z,5.97
2018-06-12T10:33:36.274Z,5.73
2018-06-12T10:36:04.903Z,6.67
2018-06-12T10:38:34.005Z,5.77
2018-06-12T10:41:05.281Z,5.70
2018-06-12T10:43:37.042Z,7.00
2018-06-12T10:46:06.004Z,5.27
2018-06-12T10:48:34.405Z,6.17
2018-06-12T10:51:03.048Z,5.30
2018-06-12T10:53:32.094Z,5.60
2018-06-12T10:56:05.212Z,6.00
2018-06-12T10:58:34.568Z,6.00
2018-06-12T11:01:02.957Z,5.63
2018-06-12T11:03:33.683Z,6.30
2018-06-12T11:06:02.836Z,6.67
2018-06-12T11:08:33.037Z,6.43
2018-06-12T11:11:05.871Z,5.93
2018-06-12T11:13:34.384Z,6.93
2018-06-12T11:16:02.682Z,6.80
2018-06-12T11:18:31.977Z,6.37
2018-06-12T11:21:03.349Z,5.83
2018-06-12T11:23:31.899Z,6.50
2018-06-12T11:26:04.076Z,5.60
2018-06-12T11:28:33.274Z,5.73
2018-06-12T11:31:06.505Z,6.20
2018-06-12T11:33:37.804Z,6.03
2018-06-12T11:36:07.324Z,6.07
2018-06-12T11:38:35.649Z,6.23
2018-06-12T11:41:06.842Z,6.37
2018-06-12T11:43:36.524Z,6.67
2018-06-12T11:46:05.793Z,6.47
2018-06-12T11:48:35.754Z,5.77
2018-06-12T11:51:06.888Z,6.13
2018-06-12T11:53:36.016Z,5.77
2018-06-12T11:56:06.094Z,5.67
2018-06-12T11:58:35.521Z,6.03
2018-06-12T12:01:04.745Z,6.23
2018-06-12T12:03:35.204Z,5.83
2018-06-12T12:06:05.373Z,5.80
2018-06-12T12:08:34.823Z,5.50
2018-06-12T12:11:03.877Z,5.70
2018-06-12T12:13:34.994Z,6.57
2018-06-12T12:16:05.601Z,6.23
2018-06-12T12:18:36.397Z,6.27
2018-06-12T12:21:04.927Z,6.77
2018-06-12T12:23:36.420Z,6.70
2018-06-12T12:26:06.893Z,5.90
2018-06-12T12:28:35.380Z,6.77
2018-06-12T12:31:04.480Z,6.33
2018-06-12T12:33:34.849Z,6.80
2018-06-12T12:36:03.526Z,6.70
2018-06-12T12:38:33.311Z,5.70
2018-06-12T12:41:03.428Z,5.27
2018-06-12T12:43:33.197Z,5.90
2018-06-12T12:46:02.854Z,6.50
2018-06-12T12:48:31.450Z,6.33
2018-06-12T12:51:00.937Z,6.30
2018-06-12T12:53:29.978Z,6.20
2018-06-12T12:56:01.062Z,5.37
2018-06-12T12:58:29.850Z,6.43
2018-06-12T13:01:00.097Z,5.87
2018-06-12T13:03:30.626Z,6.63
2018-06-12T13:06:00.084Z,6.23
2018-06-12T13:08:32.685Z,7.10
2018-06-12T13:11:01.800Z,6.33
2018-06-12T13:13:31.210Z,7.23
2018-06-12T13:15:59.764Z,6.40
2018-06-12T13:18:28.452Z,6.43
2018-06-12T13:20:58.538Z,5.90
2018-06-12T13:23:28.675Z,6.00
2018-06-12T13:26:01.292Z,6.00
2018-06-12T13:28:33.616Z,6.50
2018-06-12T13:31:02.647Z,6.07
2018-06-12T13:33:31.884Z,5.40
2018-06-12T13:36:01.240Z,5.40
2018-06-12T13:38:31.338Z,6.70
2018-06-12T13:41:05.078Z,5.57
2018-06-12T13:43:35.392Z,5.87
2018-06-12T13:46:05.422Z,6.27
2018-06-12T13:48:38.541Z,6.93
2018-06-12T13:51:09.756Z,6.07
2018-06-12T13:53:40.707Z,6.13
2018-06-12T13:56:11.912Z,5.77
2018-06-12T13:58:44.394Z,7.13
2018-06-12T14:01:14.714Z,4.93
2018-06-12T14:03:47.588Z,6.63
2018-06-12T14:06:17.259Z,6.07
2018-06-12T14:08:49.801Z,5.87
2018-06-12T14:11:21.932Z,6.00
2018-06-12T14:13:53.374Z,5.90
2018-06-12T14:16:27.226Z,5.50
2018-06-12T14:19:02.064Z,6.17
2018-06-12T14:21:31.959Z,5.70
2018-06-12T14:24:07.502Z,5.60
2018-06-12T14:26:41.757Z,6.63
2018-06-12T14:29:15.294Z,6.13
2018-06-12T14:31:46.096Z,6.67
2018-06-12T14:34:16.754Z,6.17
2018-06-12T14:36:50.071Z,7.13
2018-06-12T14:39:21.291Z,6.30
2018-06-12T14:41:52.403Z,6.30
2018-06-12T14:44:26.193Z,6.57
2018-06-12T14:46:58.244Z,6.40
2018-06-12T14:49:29.291Z,6.60
2018-06-12T14:52:05.778Z,6.70
2018-06-12T14:54:38.615Z,6.17
2018-06-12T14:57:09.444Z,6.30
2018-06-12T14:59:43.202Z,7.50
2018-06-12T15:02:16.253Z,6.73
2018-06-12T15:04:50.164Z,7.17
2018-06-12T15:07:23.733Z,7.53
2018-06-12T15:09:54.912Z,6.97
2018-06-12T15:12:28.022Z,6.43
2018-06-12T15:17:37.886Z,5.23
2018-06-12T15:20:16.115Z,5.37
2018-06-12T15:25:36.303Z,4.87
2018-06-12T15:28:12.145Z,4.57
2018-06-12T15:30:49.194Z,4.20
2018-06-12T15:33:20.683Z,4.60
2018-06-12T15:35:54.569Z,4.30
2018-06-12T15:38:30.515Z,4.43
2018-06-12T15:41:03.562Z,4.17
2018-06-12T15:43:41.072Z,5.53
2018-06-12T15:46:15.488Z,4.90
2018-06-12T15:48:49.573Z,4.07
2018-06-12T15:51:18.008Z,3.13
2018-06-12T15:53:46.390Z,3.73
2018-06-12T15:56:14.721Z,4.37
2018-06-12T15:58:42.973Z,3.60
2018-06-12T16:01:11.200Z,3.10
2018-06-12T16:03:39.538Z,3.23
2018-06-12T16:06:07.825Z,3.80
2018-06-12T16:08:36.050Z,3.37
2018-06-12T16:11:04.303Z,4.50
2018-06-12T16:13:32.642Z,4.40
2018-06-12T16:16:00.843Z,4.67
2018-06-12T16:18:28.772Z,4.80
2018-06-12T16:20:56.956Z,5.23
2018-06-12T16:23:25.196Z,5.13
2018-06-12T16:25:53.424Z,4.80
2018-06-12T16:28:21.680Z,5.23
2018-06-12T16:30:49.890Z,4.43
2018-06-12T16:33:18.097Z,4.97
2018-06-12T16:35:46.340Z,5.67
2018-06-12T16:38:14.283Z,4.37
2018-06-12T16:40:42.457Z,5.23
2018-06-12T16:43:10.408Z,4.60
2018-06-12T16:45:38.607Z,4.30
2018-06-12T16:48:06.849Z,4.80
2018-06-12T16:50:34.995Z,4.10
2018-06-12T16:53:03.229Z,4.73
2018-06-12T16:55:31.555Z,5.07
2018-06-12T16:57:59.751Z,4.20
2018-06-12T17:00:27.949Z,4.03
2018-06-12T17:02:56.149Z,4.10
2018-06-12T17:05:24.061Z,4.87
2018-06-12T17:07:52.330Z,3.97
2018-06-12T17:10:20.678Z,3.90
2018-06-12T17:12:48.903Z,3.80
2018-06-12T17:15:17.185Z,3.60
2018-06-12T17:17:45.492Z,3.53
2018-06-12T17:20:13.729Z,3.33
2018-06-12T17:22:42.013Z,3.53
2018-06-12T17:25:10.318Z,4.20
2018-06-12T17:27:38.606Z,3.23
2018-06-12T17:30:06.854Z,3.87
2018-06-12T17:32:35.191Z,3.33
2018-06-12T17:35:03.554Z,2.67
2018-06-12T17:37:31.952Z,2.90
2018-06-12T17:40:00.281Z,2.97
2018-06-12T17:42:28.562Z,2.70
2018-06-12T17:44:56.943Z,2.63
2018-06-12T17:47:25.268Z,3.00
2018-06-12T17:49:53.569Z,3.37
2018-06-12T17:52:21.956Z,3.00
2018-06-12T17:54:50.332Z,3.10
2018-06-12T17:57:18.606Z,2.80
2018-06-12T17:59:46.934Z,2.93
2018-06-12T18:02:15.225Z,3.00
2018-06-12T18:04:43.560Z,3.37
2018-06-12T18:07:11.940Z,2.70
2018-06-12T18:09:40.312Z,3.30
2018-06-12T18:12:08.626Z,3.20
2018-06-12T18:14:37.087Z,2.97
2018-06-12T18:17:05.453Z,3.13
2018-06-12T18:19:33.832Z,2.90
2018-06-12T18:22:02.210Z,2.83
2018-06-12T18:24:30.580Z,3.17
2018-06-12T18:26:58.924Z,3.30
2018-06-12T18:29:27.364Z,4.10
2018-06-12T18:31:56.620Z,3.40
2018-06-12T18:34:24.998Z,4.17
2018-06-12T18:36:54.477Z,3.63
2018-06-12T18:39:23.011Z,3.17
2018-06-12T18:41:52.072Z,4.10
2018-06-12T18:44:20.509Z,3.80
2018-06-12T18:46:49.515Z,3.50
2018-06-12T18:49:17.953Z,3.47
2018-06-12T18:51:46.347Z,4.17
2018-06-12T18:54:15.330Z,3.50
2018-06-12T18:56:44.604Z,3.90
2018-06-12T18:59:13.079Z,4.10
2018-06-12T19:01:42.509Z,4.63
2018-06-12T19:04:11.461Z,4.30
2018-06-12T19:06:39.883Z,4.17
2018-06-12T19:09:08.467Z,4.40
2018-06-12T19:11:36.903Z,4.43
2018-06-12T19:14:05.322Z,4.43
2018-06-12T19:16:33.906Z,3.73
2018-06-12T19:19:02.284Z,4.30
2018-06-12T19:21:30.791Z,3.93
2018-06-12T19:23:59.128Z,3.37
2018-06-12T19:26:27.427Z,4.07
2018-06-12T19:28:55.782Z,4.90
2018-06-12T19:31:26.112Z,4.07
2018-06-12T19:46:09.506Z,4.83
2018-06-12T19:48:37.736Z,4.63
2018-06-12T19:51:05.978Z,4.47
2018-06-12T19:53:34.157Z,4.80
2018-06-12T19:56:02.318Z,5.03
2018-06-12T19:58:30.426Z,4.70
2018-06-12T20:00:58.861Z,4.50
2018-06-12T20:03:27.013Z,4.77
2018-06-12T20:05:55.219Z,4.67
2018-06-12T20:08:23.409Z,4.80
2018-06-12T20:10:51.624Z,4.77
2018-06-12T20:13:19.762Z,4.53
2018-06-12T20:15:47.920Z,4.83
2018-06-12T20:18:16.143Z,4.77
2018-06-12T20:20:44.246Z,4.70
2018-06-12T20:23:12.119Z,5.37
2018-06-12T20:25:40.346Z,5.50
2018-06-12T20:28:08.453Z,5.20
2018-06-12T20:30:36.413Z,4.80
2018-06-12T20:33:04.586Z,4.67
2018-06-12T20:35:32.766Z,4.13
2018-06-12T20:38:00.914Z,4.60
2018-06-12T20:40:29.359Z,4.70
2018-06-12T20:42:57.497Z,4.93
2018-06-12T20:45:25.480Z,4.70
2018-06-12T20:47:53.634Z,5.37
2018-06-12T20:50:21.885Z,4.33
2018-06-12T20:52:50.064Z,4.70
2018-06-12T20:55:18.329Z,4.53
2018-06-12T20:57:46.508Z,4.67
2018-06-12T21:00:14.702Z,4.80
2018-06-12T21:02:43.027Z,4.63
2018-06-12T21:05:11.279Z,5.23
2018-06-12T21:07:39.412Z,5.23
2018-06-12T21:10:07.762Z,5.40
2018-06-12T21:12:35.906Z,5.17
2018-06-12T21:15:04.177Z,4.83
2018-06-12T21:17:32.330Z,4.60
2018-06-12T21:20:00.439Z,4.37
2018-06-12T21:22:28.542Z,4.90
2018-06-12T21:24:56.694Z,5.37
2018-06-12T21:27:24.905Z,4.77
2018-06-12T21:29:53.097Z,4.60
2018-06-12T21:32:21.183Z,4.60
2018-06-12T21:34:49.265Z,4.30
2018-06-12T21:37:17.478Z,4.33
2018-06-12T21:39:45.600Z,4.07
2018-06-12T21:42:13.708Z,4.20
2018-06-12T21:44:41.801Z,5.30
2018-06-12T21:47:10.523Z,4.43
2018-06-12T21:49:38.759Z,4.10
2018-06-12T21:52:06.929Z,4.77
2018-06-12T21:54:35.047Z,5.30
2018-06-12T21:57:03.182Z,4.77
2018-06-12T21:59:31.305Z,5.13
2018-06-12T22:01:59.435Z,4.27
2018-06-12T22:04:27.548Z,4.40
2018-06-12T22:06:55.677Z,4.03
2018-06-12T22:09:23.788Z,4.10
2018-06-12T22:11:51.905Z,4.13
2018-06-12T22:14:20.002Z,4.40
2018-06-12T22:16:48.118Z,4.30
2018-06-12T22:19:16.295Z,4.40
2018-06-12T22:21:44.450Z,4.97
2018-06-12T22:24:12.603Z,4.30
2018-06-12T22:26:40.739Z,4.37
2018-06-12T22:29:08.899Z,4.13
2018-06-12T22:31:36.802Z,4.50
2018-06-12T22:34:04.987Z,4.60
2018-06-12T22:36:33.095Z,5.03
2018-06-12T22:39:01.202Z,4.33
2018-06-12T22:41:29.444Z,4.47
2018-06-12T22:43:57.595Z,5.40
2018-06-12T22:46:25.779Z,4.73
2018-06-12T22:48:53.945Z,5.03
2018-06-12T22:51:22.138Z,5.10
2018-06-12T22:53:50.289Z,4.50
2018-06-12T22:56:18.462Z,4.53
2018-06-12T22:58:46.580Z,5.63
2018-06-12T23:01:14.472Z,4.73
2018-06-12T23:03:42.599Z,5.37
2018-06-12T23:06:10.685Z,5.20
2018-06-12T23:08:38.789Z,5.07
2018-06-12T23:11:07.018Z,5.10
2018-06-12T23:13:35.144Z,5.60
2018-06-12T23:16:03.268Z,5.10
2018-06-12T23:18:31.390Z,4.50
2018-06-12T23:22:05.345Z,5.70
2018-06-12T23:24:33.481Z,5.07
2018-06-12T23:27:01.629Z,4.47
2018-06-12T23:29:30.635Z,4.17
2018-06-12T23:31:58.783Z,4.37
2018-06-12T23:34:26.904Z,4.43
2018-06-12T23:36:55.057Z,5.07
2018-06-12T23:39:23.243Z,4.47
2018-06-12T23:41:51.361Z,4.43
2018-06-12T23:44:19.527Z,5.00
2018-06-12T23:46:47.626Z,5.47
2018-06-12T23:49:15.715Z,5.23
2018-06-12T23:51:43.839Z,4.73
2018-06-12T23:54:12.009Z,4.53
2018-06-12T23:56:40.141Z,5.00
2018-06-12T23:59:08.282Z,4.80
